sensor_id;sensor_type;location;lat;lon;timestamp;P1;durP1;ratioP1;P2;durP2;ratioP2
41923;SDS011;27613;48.116;11.656;2023-08-01T00:01:27;2.83;;;1.73;;
41923;SDS011;27613;48.116;11.656;2023-08-01T00:03:52;3.25;;;1.60;;
41923;SDS011;27613;48.116;11.656;2023-08-01T00:06:18;2.50;;;1.70;;
41923;SDS011;27613;48.116;11.656;2023-08-01T00:08:44;2.60;;;1.83;;
41923;SDS011;27613;48.116;11.656;2023-08-01T00:11:10;2.28;;;1.42;;
41923;SDS011;27613;48.116;11.656;2023-08-01T00:13:36;4.72;;;1.90;;
41923;SDS011;27613;48.116;11.656;2023-08-01T00:16:02;2.53;;;1.50;;
41923;SDS011;27613;48.116;11.656;2023-08-01T00:18:27;2.78;;;1.92;;
41923;SDS011;27613;48.116;11.656;2023-08-01T00:20:53;4.05;;;1.80;;
41923;SDS011;27613;48.116;11.656;2023-08-01T00:23:19;2.50;;;1.50;;
41923;SDS011;27613;48.116;11.656;2023-08-01T00:25:44;6.60;;;1.85;;
41923;SDS011;27613;48.116;11.656;2023-08-01T00:28:16;2.63;;;1.65;;
41923;SDS011;27613;48.116;11.656;2023-08-01T00:30:44;3.10;;;1.80;;
41923;SDS011;27613;48.116;11.656;2023-08-01T00:33:10;3.25;;;1.80;;
41923;SDS011;27613;48.116;11.656;2023-08-01T00:35:35;2.40;;;1.50;;
41923;SDS011;27613;48.116;11.656;2023-08-01T00:38:01;3.35;;;1.88;;
41923;SDS011;27613;48.116;11.656;2023-08-01T00:40:33;3.60;;;2.10;;
41923;SDS011;27613;48.116;11.656;2023-08-01T00:42:59;2.15;;;1.40;;
41923;SDS011;27613;48.116;11.656;2023-08-01T00:45:27;2.53;;;1.80;;
41923;SDS011;27613;48.116;11.656;2023-08-01T00:47:55;4.70;;;2.22;;
41923;SDS011;27613;48.116;11.656;2023-08-01T00:50:21;2.90;;;1.90;;
41923;SDS011;27613;48.116;11.656;2023-08-01T00:52:47;5.50;;;1.90;;
41923;SDS011;27613;48.116;11.656;2023-08-01T00:55:16;4.47;;;1.88;;
41923;SDS011;27613;48.116;11.656;2023-08-01T00:57:43;3.03;;;1.85;;
41923;SDS011;27613;48.116;11.656;2023-08-01T01:00:08;2.42;;;1.70;;
41923;SDS011;27613;48.116;11.656;2023-08-01T01:02:35;5.03;;;2.00;;
41923;SDS011;27613;48.116;11.656;2023-08-01T01:05:01;3.53;;;1.80;;
41923;SDS011;27613;48.116;11.656;2023-08-01T01:07:27;3.80;;;1.95;;
41923;SDS011;27613;48.116;11.656;2023-08-01T01:09:54;3.47;;;1.98;;
41923;SDS011;27613;48.116;11.656;2023-08-01T01:12:19;2.63;;;1.60;;
41923;SDS011;27613;48.116;11.656;2023-08-01T01:14:45;3.55;;;1.80;;
41923;SDS011;27613;48.116;11.656;2023-08-01T01:17:11;2.78;;;1.90;;
41923;SDS011;27613;48.116;11.656;2023-08-01T01:19:37;2.38;;;1.80;;
41923;SDS011;27613;48.116;11.656;2023-08-01T01:22:03;2.55;;;1.80;;
41923;SDS011;27613;48.116;11.656;2023-08-01T01:24:30;2.75;;;1.90;;
41923;SDS011;27613;48.116;11.656;2023-08-01T01:26:57;4.40;;;2.00;;
41923;SDS011;27613;48.116;11.656;2023-08-01T01:29:28;2.75;;;1.75;;
41923;SDS011;27613;48.116;11.656;2023-08-01T01:31:55;2.60;;;1.85;;
41923;SDS011;27613;48.116;11.656;2023-08-01T01:34:22;3.30;;;2.08;;
41923;SDS011;27613;48.116;11.656;2023-08-01T01:36:47;3.50;;;2.10;;
41923;SDS011;27613;48.116;11.656;2023-08-01T01:39:13;3.22;;;2.13;;
41923;SDS011;27613;48.116;11.656;2023-08-01T01:41:39;6.28;;;2.30;;
41923;SDS011;27613;48.116;11.656;2023-08-01T01:44:04;2.78;;;2.08;;
41923;SDS011;27613;48.116;11.656;2023-08-01T01:46:30;3.17;;;1.92;;
41923;SDS011;27613;48.116;11.656;2023-08-01T01:48:55;2.58;;;1.77;;
41923;SDS011;27613;48.116;11.656;2023-08-01T01:51:22;3.05;;;2.25;;
41923;SDS011;27613;48.116;11.656;2023-08-01T01:53:49;4.47;;;2.30;;
41923;SDS011;27613;48.116;11.656;2023-08-01T01:56:15;3.50;;;2.05;;
41923;SDS011;27613;48.116;11.656;2023-08-01T01:58:40;2.90;;;2.10;;
41923;SDS011;27613;48.116;11.656;2023-08-01T02:01:06;3.00;;;1.90;;
41923;SDS011;27613;48.116;11.656;2023-08-01T02:03:31;3.97;;;2.10;;
41923;SDS011;27613;48.116;11.656;2023-08-01T02:05:57;3.00;;;1.95;;
41923;SDS011;27613;48.116;11.656;2023-08-01T02:08:23;5.30;;;2.33;;
41923;SDS011;27613;48.116;11.656;2023-08-01T02:10:48;3.15;;;2.00;;
41923;SDS011;27613;48.116;11.656;2023-08-01T02:13:14;5.45;;;2.38;;
41923;SDS011;27613;48.116;11.656;2023-08-01T02:15:39;3.85;;;2.25;;
41923;SDS011;27613;48.116;11.656;2023-08-01T02:18:05;4.40;;;2.17;;
41923;SDS011;27613;48.116;11.656;2023-08-01T02:20:31;3.85;;;1.95;;
41923;SDS011;27613;48.116;11.656;2023-08-01T02:22:56;2.72;;;1.95;;
41923;SDS011;27613;48.116;11.656;2023-08-01T02:25:22;2.50;;;1.80;;
41923;SDS011;27613;48.116;11.656;2023-08-01T02:27:48;3.70;;;2.15;;
41923;SDS011;27613;48.116;11.656;2023-08-01T02:30:13;4.05;;;2.10;;
41923;SDS011;27613;48.116;11.656;2023-08-01T02:32:39;3.33;;;1.98;;
41923;SDS011;27613;48.116;11.656;2023-08-01T02:35:04;2.58;;;1.95;;
41923;SDS011;27613;48.116;11.656;2023-08-01T02:37:30;4.20;;;2.35;;
41923;SDS011;27613;48.116;11.656;2023-08-01T02:39:56;3.95;;;2.20;;
41923;SDS011;27613;48.116;11.656;2023-08-01T02:42:21;3.10;;;2.10;;
41923;SDS011;27613;48.116;11.656;2023-08-01T02:44:47;2.92;;;1.95;;
41923;SDS011;27613;48.116;11.656;2023-08-01T02:47:12;3.90;;;2.13;;
41923;SDS011;27613;48.116;11.656;2023-08-01T02:49:38;3.88;;;1.70;;
41923;SDS011;27613;48.116;11.656;2023-08-01T02:52:03;2.83;;;2.13;;
41923;SDS011;27613;48.116;11.656;2023-08-01T02:54:29;3.15;;;2.10;;
41923;SDS011;27613;48.116;11.656;2023-08-01T02:56:54;3.72;;;1.85;;
41923;SDS011;27613;48.116;11.656;2023-08-01T02:59:20;2.92;;;1.95;;
41923;SDS011;27613;48.116;11.656;2023-08-01T03:01:46;3.67;;;2.20;;
41923;SDS011;27613;48.116;11.656;2023-08-01T03:04:11;2.85;;;2.00;;
41923;SDS011;27613;48.116;11.656;2023-08-01T03:06:37;3.47;;;1.90;;
41923;SDS011;27613;48.116;11.656;2023-08-01T03:09:03;2.30;;;1.83;;
41923;SDS011;27613;48.116;11.656;2023-08-01T03:11:32;3.05;;;2.05;;
41923;SDS011;27613;48.116;11.656;2023-08-01T03:14:02;2.88;;;1.90;;
41923;SDS011;27613;48.116;11.656;2023-08-01T03:16:29;3.58;;;1.95;;
41923;SDS011;27613;48.116;11.656;2023-08-01T03:18:55;3.22;;;2.08;;
41923;SDS011;27613;48.116;11.656;2023-08-01T03:21:21;3.13;;;2.08;;
41923;SDS011;27613;48.116;11.656;2023-08-01T03:23:46;3.70;;;2.03;;
41923;SDS011;27613;48.116;11.656;2023-08-01T03:26:12;4.35;;;2.05;;
41923;SDS011;27613;48.116;11.656;2023-08-01T03:28:37;4.03;;;2.33;;
41923;SDS011;27613;48.116;11.656;2023-08-01T03:31:03;3.63;;;1.70;;
41923;SDS011;27613;48.116;11.656;2023-08-01T03:33:28;4.35;;;2.42;;
41923;SDS011;27613;48.116;11.656;2023-08-01T03:35:54;2.60;;;1.70;;
41923;SDS011;27613;48.116;11.656;2023-08-01T03:38:19;4.05;;;1.77;;
41923;SDS011;27613;48.116;11.656;2023-08-01T03:40:45;3.75;;;1.85;;
41923;SDS011;27613;48.116;11.656;2023-08-01T03:43:11;3.58;;;2.22;;
41923;SDS011;27613;48.116;11.656;2023-08-01T03:45:37;3.67;;;2.10;;
41923;SDS011;27613;48.116;11.656;2023-08-01T03:48:02;2.85;;;2.00;;
41923;SDS011;27613;48.116;11.656;2023-08-01T03:50:28;3.47;;;1.90;;
41923;SDS011;27613;48.116;11.656;2023-08-01T03:52:54;3.45;;;2.30;;
41923;SDS011;27613;48.116;11.656;2023-08-01T03:55:19;2.88;;;1.90;;
41923;SDS011;27613;48.116;11.656;2023-08-01T03:57:45;4.72;;;2.17;;
41923;SDS011;27613;48.116;11.656;2023-08-01T04:00:10;3.03;;;2.00;;
41923;SDS011;27613;48.116;11.656;2023-08-01T04:02:41;3.63;;;2.30;;
41923;SDS011;27613;48.116;11.656;2023-08-01T04:05:08;3.80;;;2.15;;
41923;SDS011;27613;48.116;11.656;2023-08-01T04:07:37;3.00;;;1.80;;
41923;SDS011;27613;48.116;11.656;2023-08-01T04:10:03;3.78;;;2.03;;
41923;SDS011;27613;48.116;11.656;2023-08-01T04:12:32;4.63;;;1.98;;
41923;SDS011;27613;48.116;11.656;2023-08-01T04:14:59;5.05;;;2.20;;
41923;SDS011;27613;48.116;11.656;2023-08-01T04:17:25;4.38;;;2.25;;
41923;SDS011;27613;48.116;11.656;2023-08-01T04:19:50;3.38;;;2.00;;
41923;SDS011;27613;48.116;11.656;2023-08-01T04:22:16;5.25;;;2.70;;
41923;SDS011;27613;48.116;11.656;2023-08-01T04:24:41;2.97;;;2.10;;
41923;SDS011;27613;48.116;11.656;2023-08-01T04:27:07;3.88;;;2.50;;
41923;SDS011;27613;48.116;11.656;2023-08-01T04:29:32;3.45;;;2.10;;
41923;SDS011;27613;48.116;11.656;2023-08-01T04:31:58;5.40;;;2.65;;
41923;SDS011;27613;48.116;11.656;2023-08-01T04:34:23;3.30;;;2.30;;
41923;SDS011;27613;48.116;11.656;2023-08-01T04:36:49;4.07;;;2.40;;
41923;SDS011;27613;48.116;11.656;2023-08-01T04:39:15;3.85;;;2.40;;
41923;SDS011;27613;48.116;11.656;2023-08-01T04:41:40;3.42;;;2.30;;
41923;SDS011;27613;48.116;11.656;2023-08-01T04:44:06;3.97;;;2.42;;
41923;SDS011;27613;48.116;11.656;2023-08-01T04:46:31;4.88;;;2.67;;
41923;SDS011;27613;48.116;11.656;2023-08-01T04:48:57;3.42;;;2.22;;
41923;SDS011;27613;48.116;11.656;2023-08-01T04:51:24;4.75;;;2.50;;
41923;SDS011;27613;48.116;11.656;2023-08-01T04:53:49;5.07;;;2.63;;
41923;SDS011;27613;48.116;11.656;2023-08-01T04:56:15;6.47;;;2.47;;
41923;SDS011;27613;48.116;11.656;2023-08-01T04:58:40;4.13;;;2.85;;
41923;SDS011;27613;48.116;11.656;2023-08-01T05:01:06;3.15;;;2.10;;
41923;SDS011;27613;48.116;11.656;2023-08-01T05:03:32;4.82;;;2.55;;
41923;SDS011;27613;48.116;11.656;2023-08-01T05:05:57;5.85;;;2.53;;
41923;SDS011;27613;48.116;11.656;2023-08-01T05:08:23;2.85;;;2.17;;
41923;SDS011;27613;48.116;11.656;2023-08-01T05:10:48;4.13;;;2.15;;
41923;SDS011;27613;48.116;11.656;2023-08-01T05:13:14;3.63;;;2.53;;
41923;SDS011;27613;48.116;11.656;2023-08-01T05:15:39;5.45;;;2.80;;
41923;SDS011;27613;48.116;11.656;2023-08-01T05:18:05;4.30;;;2.42;;
41923;SDS011;27613;48.116;11.656;2023-08-01T05:20:31;5.45;;;2.53;;
41923;SDS011;27613;48.116;11.656;2023-08-01T05:22:58;3.83;;;2.63;;
41923;SDS011;27613;48.116;11.656;2023-08-01T05:25:24;3.80;;;2.45;;
41923;SDS011;27613;48.116;11.656;2023-08-01T05:27:50;3.45;;;2.42;;
41923;SDS011;27613;48.116;11.656;2023-08-01T05:30:15;6.00;;;2.83;;
41923;SDS011;27613;48.116;11.656;2023-08-01T05:32:41;4.88;;;3.08;;
41923;SDS011;27613;48.116;11.656;2023-08-01T05:35:08;4.60;;;2.50;;
41923;SDS011;27613;48.116;11.656;2023-08-01T05:37:34;4.25;;;2.75;;
41923;SDS011;27613;48.116;11.656;2023-08-01T05:40:00;3.70;;;2.60;;
41923;SDS011;27613;48.116;11.656;2023-08-01T05:42:26;4.55;;;2.92;;
41923;SDS011;27613;48.116;11.656;2023-08-01T05:44:52;3.63;;;2.70;;
41923;SDS011;27613;48.116;11.656;2023-08-01T05:47:17;6.03;;;3.25;;
41923;SDS011;27613;48.116;11.656;2023-08-01T05:49:43;4.80;;;2.78;;
41923;SDS011;27613;48.116;11.656;2023-08-01T05:52:08;4.05;;;2.72;;
41923;SDS011;27613;48.116;11.656;2023-08-01T05:54:34;6.45;;;3.20;;
41923;SDS011;27613;48.116;11.656;2023-08-01T05:57:00;4.28;;;2.70;;
41923;SDS011;27613;48.116;11.656;2023-08-01T05:59:25;3.75;;;2.47;;
41923;SDS011;27613;48.116;11.656;2023-08-01T06:01:51;5.63;;;2.45;;
41923;SDS011;27613;48.116;11.656;2023-08-01T06:04:17;3.35;;;2.33;;
41923;SDS011;27613;48.116;11.656;2023-08-01T06:06:43;4.90;;;2.50;;
41923;SDS011;27613;48.116;11.656;2023-08-01T06:09:08;2.92;;;2.40;;
41923;SDS011;27613;48.116;11.656;2023-08-01T06:11:34;4.32;;;2.58;;
41923;SDS011;27613;48.116;11.656;2023-08-01T06:13:59;3.70;;;2.55;;
41923;SDS011;27613;48.116;11.656;2023-08-01T06:16:25;4.63;;;2.65;;
41923;SDS011;27613;48.116;11.656;2023-08-01T06:18:51;4.97;;;2.40;;
41923;SDS011;27613;48.116;11.656;2023-08-01T06:21:16;6.05;;;3.03;;
41923;SDS011;27613;48.116;11.656;2023-08-01T06:23:42;3.78;;;2.25;;
41923;SDS011;27613;48.116;11.656;2023-08-01T06:26:07;3.15;;;2.17;;
41923;SDS011;27613;48.116;11.656;2023-08-01T06:28:33;3.88;;;2.40;;
41923;SDS011;27613;48.116;11.656;2023-08-01T06:30:58;3.92;;;2.53;;
41923;SDS011;27613;48.116;11.656;2023-08-01T06:33:24;4.13;;;2.53;;
41923;SDS011;27613;48.116;11.656;2023-08-01T06:35:49;4.55;;;2.65;;
41923;SDS011;27613;48.116;11.656;2023-08-01T06:38:15;4.38;;;2.60;;
41923;SDS011;27613;48.116;11.656;2023-08-01T06:40:40;3.65;;;2.28;;
41923;SDS011;27613;48.116;11.656;2023-08-01T06:43:06;3.78;;;2.20;;
41923;SDS011;27613;48.116;11.656;2023-08-01T06:45:31;2.78;;;2.15;;
41923;SDS011;27613;48.116;11.656;2023-08-01T06:47:57;3.85;;;2.65;;
41923;SDS011;27613;48.116;11.656;2023-08-01T06:50:22;3.85;;;2.53;;
41923;SDS011;27613;48.116;11.656;2023-08-01T06:52:48;4.57;;;2.50;;
41923;SDS011;27613;48.116;11.656;2023-08-01T06:55:13;3.65;;;2.35;;
41923;SDS011;27613;48.116;11.656;2023-08-01T06:57:39;5.32;;;2.70;;
41923;SDS011;27613;48.116;11.656;2023-08-01T07:00:05;4.95;;;2.47;;
41923;SDS011;27613;48.116;11.656;2023-08-01T07:02:31;3.45;;;2.55;;
41923;SDS011;27613;48.116;11.656;2023-08-01T07:04:57;3.00;;;1.98;;
41923;SDS011;27613;48.116;11.656;2023-08-01T07:07:23;5.00;;;2.72;;
41923;SDS011;27613;48.116;11.656;2023-08-01T07:09:48;8.95;;;2.53;;
41923;SDS011;27613;48.116;11.656;2023-08-01T07:12:14;4.50;;;2.45;;
41923;SDS011;27613;48.116;11.656;2023-08-01T07:14:39;4.30;;;2.83;;
41923;SDS011;27613;48.116;11.656;2023-08-01T07:17:05;3.80;;;2.50;;
41923;SDS011;27613;48.116;11.656;2023-08-01T07:19:30;4.10;;;2.53;;
41923;SDS011;27613;48.116;11.656;2023-08-01T07:21:56;3.67;;;2.20;;
41923;SDS011;27613;48.116;11.656;2023-08-01T07:24:21;5.13;;;2.70;;
41923;SDS011;27613;48.116;11.656;2023-08-01T07:26:47;5.97;;;2.22;;
41923;SDS011;27613;48.116;11.656;2023-08-01T07:29:12;3.72;;;2.17;;
41923;SDS011;27613;48.116;11.656;2023-08-01T07:31:40;5.78;;;2.38;;
41923;SDS011;27613;48.116;11.656;2023-08-01T07:34:06;3.30;;;2.20;;
41923;SDS011;27613;48.116;11.656;2023-08-01T07:36:32;2.72;;;1.83;;
41923;SDS011;27613;48.116;11.656;2023-08-01T07:38:58;2.72;;;2.00;;
41923;SDS011;27613;48.116;11.656;2023-08-01T07:41:23;3.10;;;2.10;;
41923;SDS011;27613;48.116;11.656;2023-08-01T07:43:49;3.75;;;2.30;;
41923;SDS011;27613;48.116;11.656;2023-08-01T07:46:14;2.50;;;1.75;;
41923;SDS011;27613;48.116;11.656;2023-08-01T07:48:40;2.95;;;2.10;;
41923;SDS011;27613;48.116;11.656;2023-08-01T07:51:05;4.03;;;2.00;;
41923;SDS011;27613;48.116;11.656;2023-08-01T07:53:32;2.92;;;1.85;;
41923;SDS011;27613;48.116;11.656;2023-08-01T07:55:59;3.80;;;2.30;;
41923;SDS011;27613;48.116;11.656;2023-08-01T07:58:27;3.85;;;2.17;;
41923;SDS011;27613;48.116;11.656;2023-08-01T08:00:53;3.28;;;2.00;;
41923;SDS011;27613;48.116;11.656;2023-08-01T08:03:18;3.08;;;2.13;;
41923;SDS011;27613;48.116;11.656;2023-08-01T08:05:47;2.83;;;1.88;;
41923;SDS011;27613;48.116;11.656;2023-08-01T08:08:13;4.20;;;2.47;;
41923;SDS011;27613;48.116;11.656;2023-08-01T08:10:38;3.90;;;2.42;;
41923;SDS011;27613;48.116;11.656;2023-08-01T08:13:04;3.90;;;2.40;;
41923;SDS011;27613;48.116;11.656;2023-08-01T08:15:29;6.05;;;2.75;;
41923;SDS011;27613;48.116;11.656;2023-08-01T08:17:59;3.53;;;1.98;;
41923;SDS011;27613;48.116;11.656;2023-08-01T08:20:26;3.58;;;2.30;;
41923;SDS011;27613;48.116;11.656;2023-08-01T08:22:51;2.90;;;2.03;;
41923;SDS011;27613;48.116;11.656;2023-08-01T08:25:17;3.75;;;2.17;;
41923;SDS011;27613;48.116;11.656;2023-08-01T08:27:42;3.03;;;2.03;;
41923;SDS011;27613;48.116;11.656;2023-08-01T08:30:08;4.07;;;2.28;;
41923;SDS011;27613;48.116;11.656;2023-08-01T08:32:34;4.22;;;2.20;;
41923;SDS011;27613;48.116;11.656;2023-08-01T08:35:00;3.90;;;2.25;;
41923;SDS011;27613;48.116;11.656;2023-08-01T08:37:26;4.30;;;2.20;;
41923;SDS011;27613;48.116;11.656;2023-08-01T08:39:51;7.65;;;2.53;;
41923;SDS011;27613;48.116;11.656;2023-08-01T08:42:20;3.13;;;1.90;;
41923;SDS011;27613;48.116;11.656;2023-08-01T08:44:45;4.47;;;2.13;;
41923;SDS011;27613;48.116;11.656;2023-08-01T08:47:14;3.50;;;2.30;;
41923;SDS011;27613;48.116;11.656;2023-08-01T08:49:42;3.35;;;1.90;;
41923;SDS011;27613;48.116;11.656;2023-08-01T08:52:09;2.55;;;1.85;;
41923;SDS011;27613;48.116;11.656;2023-08-01T08:54:36;2.75;;;2.03;;
41923;SDS011;27613;48.116;11.656;2023-08-01T08:57:06;3.13;;;2.10;;
41923;SDS011;27613;48.116;11.656;2023-08-01T08:59:33;2.70;;;1.90;;
41923;SDS011;27613;48.116;11.656;2023-08-01T09:01:58;3.17;;;2.20;;
41923;SDS011;27613;48.116;11.656;2023-08-01T09:04:26;3.70;;;2.22;;
41923;SDS011;27613;48.116;11.656;2023-08-01T09:06:53;9.35;;;2.35;;
41923;SDS011;27613;48.116;11.656;2023-08-01T09:09:23;2.97;;;2.20;;
41923;SDS011;27613;48.116;11.656;2023-08-01T09:11:51;3.58;;;2.20;;
41923;SDS011;27613;48.116;11.656;2023-08-01T09:14:18;2.63;;;2.00;;
41923;SDS011;27613;48.116;11.656;2023-08-01T09:16:44;3.70;;;2.33;;
41923;SDS011;27613;48.116;11.656;2023-08-01T09:19:10;4.45;;;2.38;;
41923;SDS011;27613;48.116;11.656;2023-08-01T09:21:40;2.88;;;2.08;;
41923;SDS011;27613;48.116;11.656;2023-08-01T09:24:13;4.20;;;2.42;;
41923;SDS011;27613;48.116;11.656;2023-08-01T09:26:40;3.90;;;2.40;;
41923;SDS011;27613;48.116;11.656;2023-08-01T09:29:06;3.00;;;1.88;;
41923;SDS011;27613;48.116;11.656;2023-08-01T09:31:33;4.72;;;2.65;;
41923;SDS011;27613;48.116;11.656;2023-08-01T09:34:04;3.78;;;2.03;;
41923;SDS011;27613;48.116;11.656;2023-08-01T09:36:31;4.82;;;2.03;;
41923;SDS011;27613;48.116;11.656;2023-08-01T09:38:58;3.70;;;2.30;;
41923;SDS011;27613;48.116;11.656;2023-08-01T09:41:29;4.38;;;2.55;;
41923;SDS011;27613;48.116;11.656;2023-08-01T09:43:55;3.30;;;2.28;;
41923;SDS011;27613;48.116;11.656;2023-08-01T09:46:20;4.68;;;2.95;;
41923;SDS011;27613;48.116;11.656;2023-08-01T09:48:46;3.90;;;2.45;;
41923;SDS011;27613;48.116;11.656;2023-08-01T09:51:12;4.07;;;2.35;;
41923;SDS011;27613;48.116;11.656;2023-08-01T09:53:52;4.00;;;2.30;;
41923;SDS011;27613;48.116;11.656;2023-08-01T09:56:25;5.18;;;2.70;;
41923;SDS011;27613;48.116;11.656;2023-08-01T09:58:52;3.47;;;2.40;;
41923;SDS011;27613;48.116;11.656;2023-08-01T10:01:20;4.10;;;2.45;;
41923;SDS011;27613;48.116;11.656;2023-08-01T10:03:50;3.88;;;2.50;;
41923;SDS011;27613;48.116;11.656;2023-08-01T10:06:20;5.57;;;2.65;;
41923;SDS011;27613;48.116;11.656;2023-08-01T10:08:48;4.85;;;2.65;;
41923;SDS011;27613;48.116;11.656;2023-08-01T10:11:16;3.33;;;2.10;;
41923;SDS011;27613;48.116;11.656;2023-08-01T10:13:44;4.80;;;2.40;;
41923;SDS011;27613;48.116;11.656;2023-08-01T10:16:11;4.05;;;2.50;;
41923;SDS011;27613;48.116;11.656;2023-08-01T10:18:38;3.80;;;2.60;;
41923;SDS011;27613;48.116;11.656;2023-08-01T10:21:08;4.50;;;2.78;;
41923;SDS011;27613;48.116;11.656;2023-08-01T10:23:37;3.17;;;2.30;;
41923;SDS011;27613;48.116;11.656;2023-08-01T10:26:05;5.35;;;2.53;;
41923;SDS011;27613;48.116;11.656;2023-08-01T10:28:34;5.90;;;2.42;;
41923;SDS011;27613;48.116;11.656;2023-08-01T10:31:10;4.15;;;2.63;;
41923;SDS011;27613;48.116;11.656;2023-08-01T10:33:42;4.78;;;2.30;;
41923;SDS011;27613;48.116;11.656;2023-08-01T10:36:12;4.32;;;2.80;;
41923;SDS011;27613;48.116;11.656;2023-08-01T10:41:33;5.25;;;2.28;;
41923;SDS011;27613;48.116;11.656;2023-08-01T10:46:44;3.42;;;2.28;;
41923;SDS011;27613;48.116;11.656;2023-08-01T10:49:10;2.80;;;1.92;;
41923;SDS011;27613;48.116;11.656;2023-08-01T10:51:35;5.85;;;2.15;;
41923;SDS011;27613;48.116;11.656;2023-08-01T10:54:01;4.88;;;1.98;;
41923;SDS011;27613;48.116;11.656;2023-08-01T10:56:27;4.80;;;2.60;;
41923;SDS011;27613;48.116;11.656;2023-08-01T10:58:53;5.43;;;2.47;;
41923;SDS011;27613;48.116;11.656;2023-08-01T11:01:19;3.75;;;2.38;;
41923;SDS011;27613;48.116;11.656;2023-08-01T11:03:45;4.88;;;2.53;;
41923;SDS011;27613;48.116;11.656;2023-08-01T11:06:10;5.38;;;2.05;;
41923;SDS011;27613;48.116;11.656;2023-08-01T11:08:36;4.85;;;2.30;;
41923;SDS011;27613;48.116;11.656;2023-08-01T11:11:03;2.70;;;2.13;;
41923;SDS011;27613;48.116;11.656;2023-08-01T11:13:35;3.00;;;2.00;;
41923;SDS011;27613;48.116;11.656;2023-08-01T11:16:02;3.65;;;2.17;;
41923;SDS011;27613;48.116;11.656;2023-08-01T11:18:28;3.15;;;1.88;;
41923;SDS011;27613;48.116;11.656;2023-08-01T11:20:54;1.90;;;1.25;;
41923;SDS011;27613;48.116;11.656;2023-08-01T11:23:26;2.60;;;1.50;;
41923;SDS011;27613;48.116;11.656;2023-08-01T11:25:53;2.08;;;1.50;;
41923;SDS011;27613;48.116;11.656;2023-08-01T11:28:19;2.40;;;1.60;;
41923;SDS011;27613;48.116;11.656;2023-08-01T11:30:45;3.72;;;1.80;;
41923;SDS011;27613;48.116;11.656;2023-08-01T11:35:50;2.13;;;1.40;;
41923;SDS011;27613;48.116;11.656;2023-08-01T11:38:18;3.00;;;1.63;;
41923;SDS011;27613;48.116;11.656;2023-08-01T11:40:45;2.03;;;1.30;;
41923;SDS011;27613;48.116;11.656;2023-08-01T11:43:14;2.03;;;1.48;;
41923;SDS011;27613;48.116;11.656;2023-08-01T11:45:47;2.47;;;1.60;;
41923;SDS011;27613;48.116;11.656;2023-08-01T11:48:24;2.75;;;1.60;;
41923;SDS011;27613;48.116;11.656;2023-08-01T11:50:56;2.95;;;1.80;;
41923;SDS011;27613;48.116;11.656;2023-08-01T11:53:25;2.65;;;1.75;;
41923;SDS011;27613;48.116;11.656;2023-08-01T11:55:52;2.20;;;1.40;;
41923;SDS011;27613;48.116;11.656;2023-08-01T11:58:51;1.75;;;1.40;;
41923;SDS011;27613;48.116;11.656;2023-08-01T12:01:10;6.05;;;1.63;;
41923;SDS011;27613;48.116;11.656;2023-08-01T12:06:09;2.53;;;1.63;;
41923;SDS011;27613;48.116;11.656;2023-08-01T12:08:36;3.67;;;2.22;;
41923;SDS011;27613;48.116;11.656;2023-08-01T12:11:02;3.40;;;1.95;;
41923;SDS011;27613;48.116;11.656;2023-08-01T12:13:28;2.60;;;1.75;;
41923;SDS011;27613;48.116;11.656;2023-08-01T12:15:54;3.47;;;2.08;;
41923;SDS011;27613;48.116;11.656;2023-08-01T12:18:24;2.72;;;1.67;;
41923;SDS011;27613;48.116;11.656;2023-08-01T12:20:51;3.20;;;1.90;;
41923;SDS011;27613;48.116;11.656;2023-08-01T12:23:17;2.78;;;1.80;;
41923;SDS011;27613;48.116;11.656;2023-08-01T12:25:43;2.72;;;1.80;;
41923;SDS011;27613;48.116;11.656;2023-08-01T12:28:09;3.03;;;1.83;;
41923;SDS011;27613;48.116;11.656;2023-08-01T12:30:35;2.20;;;1.50;;
41923;SDS011;27613;48.116;11.656;2023-08-01T12:33:00;2.97;;;1.52;;
41923;SDS011;27613;48.116;11.656;2023-08-01T12:35:26;4.70;;;1.92;;
41923;SDS011;27613;48.116;11.656;2023-08-01T12:37:55;1.98;;;1.23;;
41923;SDS011;27613;48.116;11.656;2023-08-01T12:40:21;2.20;;;1.52;;
41923;SDS011;27613;48.116;11.656;2023-08-01T12:42:47;1.98;;;1.38;;
41923;SDS011;27613;48.116;11.656;2023-08-01T12:45:12;2.90;;;1.60;;
41923;SDS011;27613;48.116;11.656;2023-08-01T12:47:38;2.30;;;1.52;;
41923;SDS011;27613;48.116;11.656;2023-08-01T12:50:04;2.72;;;1.60;;
41923;SDS011;27613;48.116;11.656;2023-08-01T12:52:30;1.95;;;1.50;;
41923;SDS011;27613;48.116;11.656;2023-08-01T12:54:55;1.90;;;1.48;;
41923;SDS011;27613;48.116;11.656;2023-08-01T12:57:21;2.00;;;1.40;;
41923;SDS011;27613;48.116;11.656;2023-08-01T12:59:47;1.42;;;1.10;;
41923;SDS011;27613;48.116;11.656;2023-08-01T13:02:13;3.10;;;1.42;;
41923;SDS011;27613;48.116;11.656;2023-08-01T13:04:39;2.65;;;1.50;;
41923;SDS011;27613;48.116;11.656;2023-08-01T13:07:04;2.88;;;1.33;;
41923;SDS011;27613;48.116;11.656;2023-08-01T13:09:30;3.35;;;1.70;;
41923;SDS011;27613;48.116;11.656;2023-08-01T13:11:56;1.42;;;1.15;;
41923;SDS011;27613;48.116;11.656;2023-08-01T13:14:21;1.45;;;1.20;;
41923;SDS011;27613;48.116;11.656;2023-08-01T13:16:49;1.50;;;1.10;;
41923;SDS011;27613;48.116;11.656;2023-08-01T13:19:15;2.25;;;1.50;;
41923;SDS011;27613;48.116;11.656;2023-08-01T13:21:40;1.77;;;1.25;;
41923;SDS011;27613;48.116;11.656;2023-08-01T13:24:06;1.63;;;1.23;;
41923;SDS011;27613;48.116;11.656;2023-08-01T13:26:31;1.90;;;1.30;;
41923;SDS011;27613;48.116;11.656;2023-08-01T13:28:57;2.45;;;1.35;;
41923;SDS011;27613;48.116;11.656;2023-08-01T13:31:23;2.22;;;1.42;;
41923;SDS011;27613;48.116;11.656;2023-08-01T13:33:49;1.55;;;1.10;;
41923;SDS011;27613;48.116;11.656;2023-08-01T13:36:17;3.15;;;1.65;;
41923;SDS011;27613;48.116;11.656;2023-08-01T13:38:43;2.28;;;1.50;;
41923;SDS011;27613;48.116;11.656;2023-08-01T13:41:09;3.40;;;1.52;;
41923;SDS011;27613;48.116;11.656;2023-08-01T13:43:34;1.48;;;1.20;;
41923;SDS011;27613;48.116;11.656;2023-08-01T13:46:00;2.22;;;1.50;;
41923;SDS011;27613;48.116;11.656;2023-08-01T13:48:26;1.38;;;1.17;;
41923;SDS011;27613;48.116;11.656;2023-08-01T13:50:51;2.30;;;1.23;;
41923;SDS011;27613;48.116;11.656;2023-08-01T13:53:17;1.30;;;1.13;;
41923;SDS011;27613;48.116;11.656;2023-08-01T13:55:43;2.08;;;1.50;;
41923;SDS011;27613;48.116;11.656;2023-08-01T13:58:09;4.38;;;1.63;;
41923;SDS011;27613;48.116;11.656;2023-08-01T14:00:34;2.33;;;1.20;;
41923;SDS011;27613;48.116;11.656;2023-08-01T14:03:00;2.03;;;1.50;;
41923;SDS011;27613;48.116;11.656;2023-08-01T14:05:26;2.05;;;1.33;;
41923;SDS011;27613;48.116;11.656;2023-08-01T14:07:52;3.03;;;1.42;;
41923;SDS011;27613;48.116;11.656;2023-08-01T14:10:18;2.20;;;1.40;;
41923;SDS011;27613;48.116;11.656;2023-08-01T14:12:44;1.83;;;1.33;;
41923;SDS011;27613;48.116;11.656;2023-08-01T14:15:09;1.95;;;1.30;;
41923;SDS011;27613;48.116;11.656;2023-08-01T14:17:35;3.42;;;1.60;;
41923;SDS011;27613;48.116;11.656;2023-08-01T14:20:01;4.05;;;1.52;;
41923;SDS011;27613;48.116;11.656;2023-08-01T14:22:29;2.45;;;1.67;;
41923;SDS011;27613;48.116;11.656;2023-08-01T14:24:55;2.42;;;1.50;;
41923;SDS011;27613;48.116;11.656;2023-08-01T14:27:20;2.40;;;1.33;;
41923;SDS011;27613;48.116;11.656;2023-08-01T14:29:46;2.17;;;1.30;;
41923;SDS011;27613;48.116;11.656;2023-08-01T14:32:12;2.05;;;1.42;;
41923;SDS011;27613;48.116;11.656;2023-08-01T14:34:38;2.10;;;1.50;;
41923;SDS011;27613;48.116;11.656;2023-08-01T14:37:03;3.15;;;1.63;;
41923;SDS011;27613;48.116;11.656;2023-08-01T14:39:29;3.15;;;1.67;;